Time;durP1;ratioP1;P1;durP2;ratioP2;P2;SDS_P1;SDS_P2;PMS_P1;PMS_P2;Temp;Humidity;BMP_temperature;BMP_pressure;BME280_temperature;BME280_humidity;BME280_pressure;Samples;Min_cycle;Max_cycle;Signal;HPM_P1;HPM_P2
2023/07/01 00:01:01;;;;;;;;;;;;;;;34.45;26.74;97478.69;5048010;28;19982;-94
2023/07/01 00:03:30;;;;;;;;;;;;;;;34.41;26.36;97475.31;5047728;28;19925;-92
2023/07/01 00:05:59;;;;;;;;;;;;;;;34.50;26.69;97477.91;5049818;28;19975;-93
2023/07/01 00:08:25;;;;;;;;;;;;;;;34.48;27.29;97485.41;5053303;28;19917;-92
2023/07/01 00:10:51;;;;;;;;;;;;;;;34.10;27.15;97474.81;5054028;28;19941;-92
2023/07/01 00:13:17;;;;;;;;;;;;;;;34.01;27.57;97470.88;5049622;28;19921;-93
2023/07/01 00:15:43;;;;;;;;;;;;;;;33.70;27.06;97471.09;5053770;28;19960;-92
2023/07/01 00:18:09;;;;;;;;;;;;;;;33.86;26.44;97467.53;5049977;28;20403;-92
2023/07/01 00:20:35;;;;;;;;;;;;;;;33.99;26.46;97453.53;5049515;28;20007;-91
2023/07/01 00:23:01;;;;;;;;;;;;;;;34.05;27.04;97464.97;5046890;28;19920;-91
2023/07/01 00:25:27;;;;;;;;;;;;;;;33.93;27.02;97458.47;5051040;28;19920;-91
2023/07/01 00:27:53;;;;;;;;;;;;;;;34.02;26.84;97466.75;5047576;28;19928;-92
2023/07/01 00:30:19;;;;;;;;;;;;;;;34.42;26.61;97459.78;5046738;28;20344;-91
2023/07/01 00:32:45;;;;;;;;;;;;;;;34.20;27.71;97461.84;5053450;28;19925;-91
2023/07/01 00:35:11;;;;;;;;;;;;;;;33.91;27.44;97452.47;5049808;28;19975;-91
2023/07/01 00:37:37;;;;;;;;;;;;;;;33.55;27.82;97461.22;5045171;28;19924;-91
2023/07/01 00:40:04;;;;;;;;;;;;;;;33.79;27.64;97450.16;5046963;28;19929;-90
2023/07/01 00:42:30;;;;;;;;;;;;;;;34.08;26.97;97452.53;5041600;28;19936;-90
2023/07/01 00:44:56;;;;;;;;;;;;;;;34.26;26.45;97460.53;5049951;28;19925;-90
2023/07/01 00:47:22;;;;;;;;;;;;;;;34.52;26.28;97452.53;5043686;28;20015;-91
2023/07/01 00:49:48;;;;;;;;;;;;;;;34.70;26.20;97454.06;5043361;28;20300;-91
2023/07/01 00:52:14;;;;;;;;;;;;;;;34.63;26.05;97452.53;5050534;28;20015;-92
2023/07/01 00:54:41;;;;;;;;;;;;;;;34.44;26.22;97451.50;5048107;28;19920;-91
2023/07/01 00:57:08;;;;;;;;;;;;;;;34.61;26.01;97451.50;5046388;28;20411;-90
2023/07/01 00:59:34;;;;;;;;;;;;;;;34.50;26.05;97449.38;5042669;28;19927;-91
2023/07/01 01:02:03;;;;;;;;;;;;;;;34.61;26.15;97449.41;5046750;28;20292;-91
2023/07/01 01:04:35;;;;;;;;;;;;;;;34.69;25.75;97447.56;5039191;28;20257;-90
2023/07/01 01:07:03;;;;;;;;;;;;;;;34.60;26.35;97433.59;5048220;28;20381;-91
2023/07/01 01:09:42;;;;;;;;;;;;;;;34.08;27.23;97427.66;5041829;28;19920;-90
2023/07/01 01:12:10;;;;;;;;;;;;;;;33.96;27.01;97422.44;5046229;28;20024;-92
2023/07/01 01:14:41;;;;;;;;;;;;;;;34.15;26.88;97422.72;5049753;28;19924;-91
2023/07/01 01:17:10;;;;;;;;;;;;;;;34.40;26.40;97418.84;5048417;28;19929;-92
2023/07/01 01:19:42;;;;;;;;;;;;;;;34.25;26.94;97419.09;5049280;28;19928;-92
2023/07/01 01:22:14;;;;;;;;;;;;;;;34.21;27.73;97418.59;5043755;28;19925;-91
2023/07/01 01:24:41;;;;;;;;;;;;;;;34.28;27.51;97417.28;5051124;28;20365;-92
2023/07/01 01:27:09;;;;;;;;;;;;;;;34.05;27.24;97410.84;5047729;28;19999;-92
2023/07/01 01:29:35;;;;;;;;;;;;;;;34.06;27.49;97409.53;5049217;28;20348;-91
2023/07/01 01:32:02;;;;;;;;;;;;;;;33.94;27.68;97411.56;5048391;28;19928;-92
2023/07/01 01:34:28;;;;;;;;;;;;;;;33.65;28.02;97400.69;5049748;28;20327;-92
2023/07/01 01:36:56;;;;;;;;;;;;;;;33.46;27.92;97401.66;5037527;28;20019;-92
2023/07/01 01:39:26;;;;;;;;;;;;;;;33.71;27.57;97395.78;5039929;28;20007;-91
2023/07/01 01:41:54;;;;;;;;;;;;;;;33.86;27.21;97398.38;5043773;28;20000;-93
2023/07/01 01:44:33;;;;;;;;;;;;;;;34.06;27.31;97398.91;5051199;28;20396;-92
2023/07/01 01:46:59;;;;;;;;;;;;;;;33.93;27.74;97387.25;5051045;28;20687;-92
2023/07/01 01:49:26;;;;;;;;;;;;;;;33.48;28.63;97394.16;5046771;28;19917;-93
2023/07/01 01:51:53;;;;;;;;;;;;;;;33.30;29.22;97386.88;5042029;28;19955;-92
2023/07/01 01:54:19;;;;;;;;;;;;;;;33.07;28.30;97385.25;5046821;28;19925;-93
2023/07/01 01:56:45;;;;;;;;;;;;;;;32.94;28.38;97393.47;5049496;28;20046;-91
2023/07/01 01:59:11;;;;;;;;;;;;;;;32.14;29.47;97391.19;5039257;28;20281;-92
2023/07/01 02:01:38;;;;;;;;;;;;;;;31.80;29.74;97381.59;5042476;28;20062;-92
2023/07/01 02:04:04;;;;;;;;;;;;;;;30.68;31.77;97393.75;5042778;28;19921;-92
2023/07/01 02:06:31;;;;;;;;;;;;;;;31.40;30.98;97397.47;5049387;28;19921;-92
2023/07/01 02:08:57;;;;;;;;;;;;;;;31.89;30.10;97392.75;5054537;28;19924;-92
2023/07/01 02:11:23;;;;;;;;;;;;;;;32.39;29.03;97396.78;5057910;28;19939;-92
2023/07/01 02:13:49;;;;;;;;;;;;;;;33.19;27.81;97395.38;5052950;28;20379;-92
2023/07/01 02:16:15;;;;;;;;;;;;;;;33.74;27.29;97396.81;5054840;28;19995;-93
2023/07/01 02:18:41;;;;;;;;;;;;;;;34.07;26.83;97394.75;5052379;28;19948;-94
2023/07/01 02:21:07;;;;;;;;;;;;;;;34.28;26.83;97408.75;5048374;28;19975;-93
2023/07/01 02:23:33;;;;;;;;;;;;;;;34.40;26.76;97407.44;5054015;28;19928;-92
2023/07/01 02:25:59;;;;;;;;;;;;;;;34.36;26.74;97409.75;5051233;28;19960;-92
2023/07/01 02:28:25;;;;;;;;;;;;;;;34.13;26.90;97397.63;5054228;28;19927;-91
2023/07/01 02:30:51;;;;;;;;;;;;;;;34.21;26.48;97392.94;5053713;28;19921;-92
2023/07/01 02:33:17;;;;;;;;;;;;;;;34.15;26.70;97399.94;5048715;28;20411;-93
2023/07/01 02:35:43;;;;;;;;;;;;;;;34.09;26.72;97399.97;5049302;28;20381;-94
2023/07/01 02:38:09;;;;;;;;;;;;;;;34.22;26.47;97397.34;5048525;28;19929;-93
2023/07/01 02:40:35;;;;;;;;;;;;;;;34.50;26.25;97398.06;5047509;28;19928;-93
2023/07/01 02:43:01;;;;;;;;;;;;;;;34.70;26.29;97392.06;5045037;28;20392;-92
2023/07/01 02:45:27;;;;;;;;;;;;;;;34.85;26.45;97396.69;5052632;28;19931;-94
2023/07/01 02:47:55;;;;;;;;;;;;;;;34.64;26.84;97388.47;5043164;28;21356;-93
2023/07/01 02:50:21;;;;;;;;;;;;;;;34.11;27.31;97376.63;5047372;28;19921;-92
2023/07/01 02:52:47;;;;;;;;;;;;;;;34.02;28.71;97378.44;5044267;28;19921;-93
2023/07/01 02:55:13;;;;;;;;;;;;;;;34.18;27.35;97378.94;5050875;28;19936;-93
2023/07/01 02:57:39;;;;;;;;;;;;;;;33.95;27.73;97378.19;5047277;28;19952;-94
2023/07/01 03:00:10;;;;;;;;;;;;;;;33.69;28.68;97375.59;5046587;28;20017;-93
2023/07/01 03:02:36;;;;;;;;;;;;;;;33.89;28.77;97378.16;5054569;28;19925;-93
2023/07/01 03:05:04;;;;;;;;;;;;;;;34.20;27.80;97377.13;5055951;28;19924;-92
2023/07/01 03:07:30;;;;;;;;;;;;;;;34.30;27.63;97374.78;5056647;28;20007;-92
2023/07/01 03:09:56;;;;;;;;;;;;;;;34.23;27.86;97373.25;5056535;28;20007;-94
2023/07/01 03:12:22;;;;;;;;;;;;;;;34.36;27.45;97367.78;5054131;28;19917;-92
2023/07/01 03:14:48;;;;;;;;;;;;;;;34.64;27.57;97377.06;5046561;28;19975;-92
2023/07/01 03:17:14;;;;;;;;;;;;;;;34.82;27.31;97383.50;5046354;28;20022;-93
2023/07/01 03:19:41;;;;;;;;;;;;;;;34.93;26.84;97384.22;5049882;28;19976;-92
2023/07/01 03:22:07;;;;;;;;;;;;;;;34.89;26.93;97395.13;5050292;28;20019;-92
2023/07/01 03:24:33;;;;;;;;;;;;;;;34.92;26.96;97396.91;5050699;28;19921;-92
2023/07/01 03:27:03;;;;;;;;;;;;;;;34.85;27.14;97403.16;5050647;28;20435;-92
2023/07/01 03:29:29;;;;;;;;;;;;;;;34.48;27.55;97414.94;5048960;28;20396;-91
2023/07/01 03:31:55;;;;;;;;;;;;;;;34.03;28.49;97402.00;5049924;28;19921;-92
2023/07/01 03:34:22;;;;;;;;;;;;;;;33.47;29.43;97395.44;5046758;28;19925;-91
2023/07/01 03:36:48;;;;;;;;;;;;;;;33.43;29.46;97398.56;5052874;28;20323;-92
2023/07/01 03:39:16;;;;;;;;;;;;;;;32.96;29.95;97407.16;5050362;28;20380;-91
2023/07/01 03:41:42;;;;;;;;;;;;;;;32.18;31.58;97398.19;5046210;28;19929;-92
2023/07/01 03:44:08;;;;;;;;;;;;;;;31.79;32.37;97403.53;5052863;28;20020;-91
2023/07/01 03:46:34;;;;;;;;;;;;;;;30.45;34.45;97397.56;5045838;28;20020;-91
2023/07/01 03:49:00;;;;;;;;;;;;;;;31.57;33.16;97391.19;5049544;28;20305;-92
2023/07/01 03:51:26;;;;;;;;;;;;;;;31.53;33.04;97393.50;5048184;28;19932;-90
2023/07/01 03:53:52;;;;;;;;;;;;;;;32.23;31.93;97391.00;5051392;28;19921;-90
2023/07/01 03:56:18;;;;;;;;;;;;;;;32.08;31.94;97388.31;5048771;28;19964;-91
2023/07/01 03:58:44;;;;;;;;;;;;;;;31.61;33.00;97389.69;5050550;28;19974;-90
2023/07/01 04:01:10;;;;;;;;;;;;;;;31.28;33.30;97395.00;5050520;28;19917;-90
2023/07/01 04:03:37;;;;;;;;;;;;;;;31.49;33.22;97395.75;5050555;28;19925;-91
2023/07/01 04:06:03;;;;;;;;;;;;;;;30.82;34.54;97394.19;5049555;28;19920;-92
2023/07/01 04:08:29;;;;;;;;;;;;;;;31.02;34.45;97391.34;5050362;28;19966;-90
2023/07/01 04:10:55;;;;;;;;;;;;;;;31.56;33.26;97389.63;5049511;28;20846;-91
2023/07/01 04:13:21;;;;;;;;;;;;;;;32.27;32.18;97383.78;5038207;28;19917;-91
2023/07/01 04:15:47;;;;;;;;;;;;;;;32.77;31.32;97384.06;5048035;28;19948;-91
2023/07/01 04:18:13;;;;;;;;;;;;;;;33.17;30.58;97388.66;5053158;28;20018;-92
2023/07/01 04:20:40;;;;;;;;;;;;;;;33.56;30.36;97386.69;5050728;28;20012;-91
2023/07/01 04:23:06;;;;;;;;;;;;;;;33.68;30.23;97388.25;5050431;28;19932;-92
2023/07/01 04:25:32;;;;;;;;;;;;;;;33.63;30.30;97385.41;5050226;28;19924;-92
2023/07/01 04:27:59;;;;;;;;;;;;;;;33.66;30.22;97392.91;5047937;28;20465;-91
2023/07/01 04:30:25;;;;;;;;;;;;;;;33.78;30.25;97385.94;5047250;28;19926;-92
2023/07/01 04:32:51;;;;;;;;;;;;;;;33.83;29.82;97403.03;5052208;28;19974;-91
2023/07/01 04:35:17;;;;;;;;;;;;;;;34.18;29.62;97401.75;5046112;28;19956;-91
2023/07/01 04:37:43;;;;;;;;;;;;;;;34.49;29.30;97402.22;5047339;28;20006;-91
2023/07/01 04:40:09;;;;;;;;;;;;;;;34.69;28.76;97396.22;5035008;28;20011;-93
2023/07/01 04:42:35;;;;;;;;;;;;;;;34.82;28.71;97398.53;5044241;28;19929;-92
2023/07/01 04:45:01;;;;;;;;;;;;;;;34.39;29.36;97403.03;5051011;28;19977;-92
2023/07/01 04:47:29;;;;;;;;;;;;;;;34.42;29.34;97401.97;5045026;28;20002;-93
2023/07/01 04:49:55;;;;;;;;;;;;;;;34.33;29.58;97408.72;5052848;28;20395;-91
2023/07/01 04:52:22;;;;;;;;;;;;;;;34.14;29.51;97413.44;5053604;28;20388;-92
2023/07/01 04:54:48;;;;;;;;;;;;;;;34.15;29.68;97417.03;5038573;28;19943;-93
2023/07/01 04:57:14;;;;;;;;;;;;;;;34.07;29.82;97408.25;5034383;28;19918;-91
2023/07/01 04:59:40;;;;;;;;;;;;;;;34.06;29.61;97420.94;5039047;28;19967;-93
2023/07/01 05:02:07;;;;;;;;;;;;;;;33.86;29.81;97419.09;5051603;28;19995;-92
2023/07/01 05:04:33;;;;;;;;;;;;;;;34.11;29.63;97425.84;5046497;28;19917;-92
2023/07/01 05:06:59;;;;;;;;;;;;;;;34.21;29.88;97418.59;5050674;28;19925;-92
2023/07/01 05:09:25;;;;;;;;;;;;;;;33.55;30.79;97412.84;5050447;28;19917;-91
2023/07/01 05:11:51;;;;;;;;;;;;;;;33.65;30.39;97412.09;5051008;28;20373;-91
2023/07/01 05:14:17;;;;;;;;;;;;;;;33.95;30.30;97427.38;5051441;28;19964;-91
2023/07/01 05:16:43;;;;;;;;;;;;;;;34.32;29.67;97429.19;5047669;28;19979;-94
2023/07/01 05:19:09;;;;;;;;;;;;;;;33.89;30.37;97422.97;5051909;28;19921;-93
2023/07/01 05:21:35;;;;;;;;;;;;;;;34.05;30.46;97434.38;5055640;28;19920;-94
2023/07/01 05:24:04;;;;;;;;;;;;;;;33.73;30.48;97430.19;5054736;28;19929;-93
2023/07/01 05:26:30;;;;;;;;;;;;;;;33.31;31.58;97436.03;5046825;28;19925;-95
2023/07/01 05:28:57;;;;;;;;;;;;;;;33.18;31.50;97445.06;5058937;28;20469;-94
2023/07/01 05:31:23;;;;;;;;;;;;;;;33.25;31.87;97447.41;5042464;28;19921;-95
2023/07/01 05:33:49;;;;;;;;;;;;;;;33.38;31.62;97433.47;5051772;28;19927;-94
2023/07/01 05:36:15;;;;;;;;;;;;;;;32.98;32.12;97445.19;5051445;28;19920;-93
2023/07/01 05:38:41;;;;;;;;;;;;;;;32.48;33.06;97446.97;5048892;28;19928;-93
2023/07/01 05:41:07;;;;;;;;;;;;;;;32.93;32.13;97448.78;5050985;28;19928;-94
2023/07/01 05:43:33;;;;;;;;;;;;;;;33.30;31.76;97449.47;5068037;28;19921;-94
2023/07/01 05:45:59;;;;;;;;;;;;;;;32.62;33.16;97449.66;5067397;28;19947;-95
2023/07/01 05:48:25;;;;;;;;;;;;;;;32.76;32.81;97453.63;5050562;28;19996;-96
2023/07/01 05:50:51;;;;;;;;;;;;;;;33.32;32.23;97443.28;5054959;28;19970;-92
2023/07/01 05:53:17;;;;;;;;;;;;;;;33.09;32.28;97438.81;5043046;28;20368;-95
2023/07/01 05:55:43;;;;;;;;;;;;;;;33.11;32.55;97439.84;5039037;28;19967;-96
2023/07/01 05:58:09;;;;;;;;;;;;;;;33.75;31.89;97427.63;5049672;28;19917;-95
2023/07/01 06:00:35;;;;;;;;;;;;;;;33.74;31.54;97420.38;5049082;28;19921;-90
2023/07/01 06:03:01;;;;;;;;;;;;;;;33.39;32.46;97439.94;5046583;28;19925;-91
2023/07/01 06:05:27;;;;;;;;;;;;;;;33.43;32.35;97434.78;5040275;28;19927;-96
2023/07/01 06:07:53;;;;;;;;;;;;;;;33.72;31.34;97439.28;5049170;28;19936;-95
2023/07/01 06:10:20;;;;;;;;;;;;;;;33.71;31.64;97444.19;5050607;28;20372;-94
2023/07/01 06:12:46;;;;;;;;;;;;;;;33.54;32.06;97434.81;5049949;28;19917;-90
2023/07/01 06:15:12;;;;;;;;;;;;;;;33.11;32.77;97439.84;5046884;28;19927;-91
2023/07/01 06:17:38;;;;;;;;;;;;;;;33.21;32.89;97446.09;5047471;28;19933;-91
2023/07/01 06:20:05;;;;;;;;;;;;;;;33.67;32.03;97448.59;5043398;28;20292;-90
2023/07/01 06:22:31;;;;;;;;;;;;;;;34.02;31.23;97461.06;5045958;28;20000;-88
2023/07/01 06:24:57;;;;;;;;;;;;;;;33.61;31.88;97462.78;5044848;28;19921;-89
2023/07/01 06:27:23;;;;;;;;;;;;;;;33.53;32.10;97472.34;5043284;28;19938;-89
2023/07/01 06:29:49;;;;;;;;;;;;;;;33.92;31.52;97464.66;5042798;28;19924;-89
2023/07/01 06:32:15;;;;;;;;;;;;;;;33.81;32.29;97461.81;5040702;28;19921;-87
2023/07/01 06:34:41;;;;;;;;;;;;;;;33.21;32.93;97458.25;5032329;28;19921;-87
2023/07/01 06:37:07;;;;;;;;;;;;;;;33.28;33.02;97468.38;5041714;28;19921;-88
2023/07/01 06:39:33;;;;;;;;;;;;;;;33.40;32.92;97461.41;5044578;28;19928;-88
2023/07/01 06:41:59;;;;;;;;;;;;;;;33.50;32.64;97456.25;5047189;28;19925;-87
2023/07/01 06:44:25;;;;;;;;;;;;;;;33.98;31.82;97474.00;5047525;28;19970;-87
2023/07/01 06:46:51;;;;;;;;;;;;;;;34.03;31.46;97476.88;5046386;28;19921;-87
2023/07/01 06:49:17;;;;;;;;;;;;;;;34.23;30.93;97466.53;5040471;28;20331;-86
2023/07/01 06:51:43;;;;;;;;;;;;;;;33.82;32.06;97455.59;5049559;28;19921;-85
2023/07/01 06:54:10;;;;;;;;;;;;;;;33.52;32.58;97460.16;5051942;28;19927;-85
2023/07/01 06:56:37;;;;;;;;;;;;;;;33.45;32.85;97452.13;5055588;28;19925;-87
2023/07/01 06:59:03;;;;;;;;;;;;;;;33.57;32.83;97455.78;5051831;28;19924;-84
2023/07/01 07:01:29;;;;;;;;;;;;;;;33.54;32.71;97446.22;5045757;28;19916;-86
2023/07/01 07:03:56;;;;;;;;;;;;;;;33.28;33.40;97446.38;5047818;28;19967;-87
2023/07/01 07:06:22;;;;;;;;;;;;;;;32.95;33.70;97451.13;5042832;28;20373;-85
2023/07/01 07:08:48;;;;;;;;;;;;;;;33.04;33.25;97462.31;5050494;28;19962;-87
2023/07/01 07:11:14;;;;;;;;;;;;;;;33.57;32.88;97461.50;5052987;28;19925;-87
2023/07/01 07:13:40;;;;;;;;;;;;;;;33.58;32.50;97458.16;5049169;28;19921;-87
2023/07/01 07:16:06;;;;;;;;;;;;;;;33.23;33.33;97452.06;5047631;28;20277;-87
2023/07/01 07:18:32;;;;;;;;;;;;;;;33.05;34.23;97458.94;5049511;28;19921;-86
2023/07/01 07:20:58;;;;;;;;;;;;;;;32.95;34.10;97451.13;5052401;28;19920;-89
2023/07/01 07:23:24;;;;;;;;;;;;;;;32.64;34.88;97447.09;5044777;28;20772;-87
2023/07/01 07:25:50;;;;;;;;;;;;;;;32.66;34.69;97455.09;5045240;28;20356;-87
2023/07/01 07:28:16;;;;;;;;;;;;;;;33.11;34.10;97454.09;5040814;28;20016;-88
2023/07/01 07:30:42;;;;;;;;;;;;;;;33.39;33.96;97452.13;5051689;28;19920;-88
2023/07/01 07:33:08;;;;;;;;;;;;;;;33.63;33.33;97457.34;5047008;28;19928;-88
2023/07/01 07:35:34;;;;;;;;;;;;;;;33.83;32.75;97460.00;5048044;28;20003;-88
2023/07/01 07:38:00;;;;;;;;;;;;;;;33.93;32.79;97463.38;5043294;28;19921;-88
2023/07/01 07:40:26;;;;;;;;;;;;;;;34.03;32.42;97468.31;5053227;28;19925;-88
2023/07/01 07:42:53;;;;;;;;;;;;;;;34.07;32.30;97462.38;5053843;28;19944;-88
2023/07/01 07:45:22;;;;;;;;;;;;;;;34.11;32.41;97460.03;5050424;28;19925;-85
2023/07/01 07:47:49;;;;;;;;;;;;;;;34.11;32.29;97459.25;5054441;28;19916;-85
2023/07/01 07:50:15;;;;;;;;;;;;;;;33.89;32.64;97451.44;5050156;28;19931;-89
2023/07/01 07:52:41;;;;;;;;;;;;;;;33.92;32.67;97453.28;5053243;28;19920;-88
2023/07/01 07:55:07;;;;;;;;;;;;;;;33.86;32.68;97455.34;5052841;28;19982;-86
2023/07/01 07:57:33;;;;;;;;;;;;;;;33.95;32.59;97452.25;5051403;28;20373;-86
2023/07/01 08:00:00;;;;;;;;;;;;;;;33.83;33.15;97454.31;5051735;28;19967;-86
2023/07/01 08:02:26;;;;;;;;;;;;;;;34.03;32.15;97459.00;5054644;28;19970;-85
2023/07/01 08:04:52;;;;;;;;;;;;;;;34.21;31.94;97460.56;5049098;28;19921;-88
2023/07/01 08:07:18;;;;;;;;;;;;;;;34.17;31.88;97452.25;5045340;28;19920;-89
2023/07/01 08:09:44;;;;;;;;;;;;;;;34.20;32.27;97456.94;5043421;28;19924;-89
2023/07/01 08:12:10;;;;;;;;;;;;;;;34.30;31.88;97460.31;5041796;28;20293;-89
2023/07/01 08:14:36;;;;;;;;;;;;;;;34.39;31.77;97465.72;5038696;28;19964;-88
2023/07/01 08:17:02;;;;;;;;;;;;;;;34.31;31.58;97450.47;5045395;28;19928;-89
2023/07/01 08:19:28;;;;;;;;;;;;;;;34.10;31.54;97447.09;5049715;28;20418;-92
2023/07/01 08:21:54;;;;;;;;;;;;;;;33.93;31.64;97446.28;5054837;28;19956;-91
2023/07/01 08:24:24;;;;;;;;;;;;;;;33.96;31.73;97454.56;5045736;28;19921;-90
2023/07/01 08:26:52;;;;;;;;;;;;;;;33.86;31.52;97446.81;5046934;28;19925;-90
2023/07/01 08:29:19;;;;;;;;;;;;;;;33.75;31.83;97439.00;5051825;28;19924;-88
2023/07/01 08:31:45;;;;;;;;;;;;;;;33.29;32.47;97447.94;5049494;28;20403;-87
2023/07/01 08:34:12;;;;;;;;;;;;;;;33.05;33.25;97450.41;5040717;28;19925;-84
2023/07/01 08:36:38;;;;;;;;;;;;;;;32.91;33.24;97451.34;5039438;28;20367;-85
2023/07/01 08:39:04;;;;;;;;;;;;;;;32.61;33.87;97447.31;5051008;28;19920;-85
2023/07/01 08:41:32;;;;;;;;;;;;;;;32.42;34.28;97449.75;5050172;28;20399;-85
2023/07/01 08:43:59;;;;;;;;;;;;;;;32.73;33.95;97449.72;5043432;28;20020;-85
2023/07/01 08:46:25;;;;;;;;;;;;;;;33.02;33.58;97445.78;5041341;28;20300;-85
2023/07/01 08:48:52;;;;;;;;;;;;;;;32.38;33.99;97439.91;5040126;28;19975;-87
2023/07/01 08:51:25;;;;;;;;;;;;;;;32.17;35.43;97432.78;5048604;28;19967;-87
2023/07/01 08:53:52;;;;;;;;;;;;;;;32.63;34.50;97439.06;5048867;28;19920;-87
2023/07/01 08:56:19;;;;;;;;;;;;;;;32.82;33.89;97430.88;5043572;28;19951;-87
2023/07/01 08:58:46;;;;;;;;;;;;;;;32.93;34.37;97423.19;5046525;28;19928;-88
2023/07/01 09:01:12;;;;;;;;;;;;;;;33.08;34.40;97429.50;5050396;28;19936;-87
2023/07/01 09:03:39;;;;;;;;;;;;;;;33.18;34.12;97421.50;5050355;28;19929;-86
2023/07/01 09:06:06;;;;;;;;;;;;;;;33.15;33.83;97425.38;5048516;28;20327;-85
2023/07/01 09:08:33;;;;;;;;;;;;;;;33.08;34.09;97417.34;5052584;28;19966;-87
2023/07/01 09:10:59;;;;;;;;;;;;;;;33.27;33.54;97419.22;5047846;28;19921;-87
2023/07/01 09:13:26;;;;;;;;;;;;;;;33.44;33.06;97419.25;5044704;28;19921;-87
2023/07/01 09:15:52;;;;;;;;;;;;;;;33.33;33.63;97417.16;5044966;28;19925;-87
2023/07/01 09:18:25;;;;;;;;;;;;;;;33.09;33.43;97419.69;5044765;28;19931;-87
2023/07/01 09:20:52;;;;;;;;;;;;;;;32.96;34.75;97425.00;5049943;28;19929;-88
2023/07/01 09:23:28;;;;;;;;;;;;;;;33.09;34.51;97421.75;5048901;28;20027;-87
2023/07/01 09:26:06;;;;;;;;;;;;;;;33.38;33.95;97412.75;5046573;28;19936;-87
2023/07/01 09:28:33;;;;;;;;;;;;;;;33.37;34.04;97423.38;5046986;28;19921;-87
2023/07/01 09:31:00;;;;;;;;;;;;;;;33.31;34.12;97421.81;5045887;28;19936;-88
2023/07/01 09:33:27;;;;;;;;;;;;;;;33.29;33.89;97413.78;5045633;28;19929;-88
2023/07/01 09:35:57;;;;;;;;;;;;;;;33.38;34.28;97419.25;5045605;28;19929;-88
2023/07/01 09:38:24;;;;;;;;;;;;;;;33.48;33.36;97416.16;5044741;28;19928;-86
2023/07/01 09:40:50;;;;;;;;;;;;;;;33.56;34.02;97414.41;5048501;28;21936;-88
2023/07/01 09:43:18;;;;;;;;;;;;;;;33.47;34.10;97415.38;5044918;28;19963;-88
2023/07/01 09:48:53;;;;;;;;;;;;;;;33.67;33.29;97411.56;5050892;28;19963;-88
2023/07/01 09:51:20;;;;;;;;;;;;;;;33.68;32.92;97416.72;5049471;28;19921;-90
2023/07/01 09:53:46;;;;;;;;;;;;;;;33.71;32.95;97412.06;5053523;28;20363;-90
2023/07/01 09:56:14;;;;;;;;;;;;;;;34.02;32.81;97404.06;5042431;28;19924;-89
2023/07/01 09:58:40;;;;;;;;;;;;;;;33.95;33.60;97403.81;5051481;28;20029;-91
2023/07/01 10:01:06;;;;;;;;;;;;;;;33.80;33.92;97397.59;5053422;28;19921;-91
2023/07/01 10:03:32;;;;;;;;;;;;;;;34.05;33.67;97391.66;5043316;28;20292;-89
2023/07/01 10:05:58;;;;;;;;;;;;;;;33.91;33.40;97395.50;5038593;28;19921;-92
2023/07/01 10:08:24;;;;;;;;;;;;;;;34.10;33.55;97390.09;5049462;28;19927;-93
2023/07/01 10:11:05;;;;;;;;;;;;;;;34.52;32.63;97386.94;5050234;28;20011;-91
2023/07/01 10:13:34;;;;;;;;;;;;;;;34.75;33.61;97384.81;5053727;28;19917;-88
2023/07/01 10:16:02;;;;;;;;;;;;;;;34.65;33.30;97390.03;5040968;28;20002;-88
2023/07/01 10:18:30;;;;;;;;;;;;;;;34.66;34.58;97385.88;5043364;28;20649;-87
2023/07/01 10:21:14;;;;;;;;;;;;;;;35.18;34.25;97390.88;5045824;28;19921;-86
2023/07/01 10:23:45;;;;;;;;;;;;;;;35.57;31.83;97374.28;5046052;28;19927;-86
2023/07/01 10:32:27;;;;;;;;;;;;;;;34.86;33.61;97375.44;5045914;28;20434;-85
2023/07/01 10:34:53;;;;;;;;;;;;;;;34.61;32.83;97375.25;5052862;28;19921;-85
2023/07/01 10:37:20;;;;;;;;;;;;;;;34.40;34.21;97367.53;5050668;28;19966;-86
2023/07/01 10:39:46;;;;;;;;;;;;;;;34.61;34.27;97372.41;5052041;28;19928;-90
2023/07/01 10:42:31;;;;;;;;;;;;;;;34.83;33.77;97363.00;5047706;28;19925;-87
2023/07/01 10:45:12;;;;;;;;;;;;;;;35.59;35.06;97368.06;5048368;28;20339;-86
2023/07/01 10:47:45;;;;;;;;;;;;;;;36.16;31.86;97359.28;5048001;28;19925;-90
2023/07/01 10:50:12;;;;;;;;;;;;;;;35.80;32.86;97366.34;5044780;28;19946;-86
2023/07/01 10:52:56;;;;;;;;;;;;;;;35.76;31.53;97360.13;5047641;28;19920;-86
2023/07/01 10:55:46;;;;;;;;;;;;;;;35.92;33.91;97360.00;5046191;28;19966;-86
2023/07/01 10:58:26;;;;;;;;;;;;;;;36.65;31.72;97355.16;5046978;28;19920;-86
2023/07/01 11:00:52;;;;;;;;;;;;;;;37.30;31.35;97360.56;5043130;28;19929;-86
2023/07/01 11:03:34;;;;;;;;;;;;;;;37.66;30.46;97343.13;5049063;28;19966;-87
2023/07/01 11:06:03;;;;;;;;;;;;;;;37.94;29.98;97346.34;5038249;28;19956;-90
2023/07/01 11:08:30;;;;;;;;;;;;;;;38.01;28.76;97352.22;5049729;28;19929;-90
2023/07/01 11:10:56;;;;;;;;;;;;;;;37.77;29.75;97346.59;5047640;28;19924;-88
2023/07/01 11:13:23;;;;;;;;;;;;;;;37.75;30.69;97342.72;5052341;28;19921;-89
2023/07/01 11:16:02;;;;;;;;;;;;;;;37.55;30.69;97341.22;5046146;28;19925;-89
2023/07/01 11:18:41;;;;;;;;;;;;;;;37.85;29.98;97332.44;5039909;28;19921;-89
2023/07/01 11:21:10;;;;;;;;;;;;;;;37.38;30.79;97335.75;5048160;28;19924;-87
2023/07/01 11:23:37;;;;;;;;;;;;;;;36.92;30.75;97333.25;5043184;28;20019;-86
2023/07/01 11:26:03;;;;;;;;;;;;;;;36.92;32.73;97327.53;5044059;28;19930;-88
2023/07/01 11:28:36;;;;;;;;;;;;;;;37.66;30.39;97328.81;5041379;28;20027;-89
2023/07/01 11:31:11;;;;;;;;;;;;;;;37.38;35.61;97323.50;5047326;28;19978;-90
2023/07/01 11:33:41;;;;;;;;;;;;;;;37.27;32.20;97326.53;5045362;28;19929;-92
2023/07/01 11:36:07;;;;;;;;;;;;;;;37.34;32.86;97329.50;5047355;28;19924;-93
2023/07/01 11:38:33;;;;;;;;;;;;;;;37.46;31.39;97323.66;5046914;28;20281;-92
2023/07/01 11:40:59;;;;;;;;;;;;;;;37.91;33.11;97319.53;5048932;28;20077;-91
2023/07/01 11:43:27;;;;;;;;;;;;;;;38.65;32.81;97321.28;5043500;28;20406;-91
2023/07/01 11:45:53;;;;;;;;;;;;;;;39.11;29.62;97321.91;5051897;28;19932;-91
2023/07/01 11:48:30;;;;;;;;;;;;;;;38.36;30.31;97321.63;5046799;28;19923;-91
2023/07/01 11:50:57;;;;;;;;;;;;;;;37.24;31.37;97319.00;5045421;28;20402;-91
2023/07/01 11:53:24;;;;;;;;;;;;;;;37.20;31.19;97322.16;5040933;28;19925;-90
2023/07/01 11:55:50;;;;;;;;;;;;;;;37.12;30.85;97321.25;5051418;28;19920;-91
2023/07/01 11:58:23;;;;;;;;;;;;;;;37.28;30.56;97328.06;5043681;28;19970;-91
2023/07/01 12:00:49;;;;;;;;;;;;;;;37.13;30.75;97319.94;5042205;28;19928;-89
2023/07/01 12:03:15;;;;;;;;;;;;;;;37.33;30.93;97327.19;5048295;28;19927;-90
2023/07/01 12:05:44;;;;;;;;;;;;;;;37.24;30.71;97325.53;5048204;28;19920;-91
2023/07/01 12:08:10;;;;;;;;;;;;;;;36.89;30.12;97328.59;5046161;28;19929;-91
2023/07/01 12:10:38;;;;;;;;;;;;;;;36.72;31.75;97314.50;5044281;28;19929;-92
2023/07/01 12:13:05;;;;;;;;;;;;;;;36.77;31.20;97323.53;5049145;28;19921;-91
2023/07/01 12:15:33;;;;;;;;;;;;;;;36.59;33.15;97320.13;5050867;28;20043;-92
2023/07/01 12:18:17;;;;;;;;;;;;;;;36.58;32.12;97312.84;5042178;28;19920;-92
2023/07/01 12:20:43;;;;;;;;;;;;;;;36.51;32.49;97307.72;5044867;28;19924;-93
2023/07/01 12:23:09;;;;;;;;;;;;;;;36.49;33.00;97306.72;5040937;28;19921;-89
2023/07/01 12:25:35;;;;;;;;;;;;;;;36.30;33.74;97300.91;5046186;28;19950;-91
2023/07/01 12:28:03;;;;;;;;;;;;;;;36.70;32.05;97293.44;5043056;28;19936;-89
2023/07/01 12:30:29;;;;;;;;;;;;;;;36.11;34.01;97299.34;5042338;28;20074;-85
2023/07/01 12:32:55;;;;;;;;;;;;;;;36.12;34.56;97301.66;5041407;28;20012;-85
2023/07/01 12:35:21;;;;;;;;;;;;;;;36.90;35.95;97297.88;5047289;28;19920;-85
2023/07/01 12:37:47;;;;;;;;;;;;;;;38.01;35.51;97299.81;5045141;28;20490;-84
2023/07/01 12:40:14;;;;;;;;;;;;;;;38.65;32.58;97291.81;5048124;28;19978;-86
2023/07/01 12:42:40;;;;;;;;;;;;;;;38.32;34.50;97286.75;5042232;28;19983;-87
2023/07/01 12:45:06;;;;;;;;;;;;;;;38.31;33.95;97277.38;5045435;28;19971;-87
2023/07/01 12:47:32;;;;;;;;;;;;;;;37.76;31.88;97284.84;5050236;28;19920;-86
2023/07/01 12:49:58;;;;;;;;;;;;;;;38.13;29.66;97283.97;5044948;28;20836;-87
2023/07/01 12:52:24;;;;;;;;;;;;;;;38.74;28.54;97284.88;5046184;28;20015;-86
2023/07/01 12:54:50;;;;;;;;;;;;;;;39.00;28.53;97281.97;5045839;28;19920;-86
2023/07/01 12:57:16;;;;;;;;;;;;;;;37.90;30.58;97277.84;5045168;28;20023;-86